Time;durP1;ratioP1;P1;durP2;ratioP2;P2;SDS_P1;SDS_P2;PMS_P1;PMS_P2;Temp;Humidity;BMP_temperature;BMP_pressure;BME280_temperature;BME280_humidity;BME280_pressure;Samples;Min_cycle;Max_cycle;Signal;HPM_P1;HPM_P2
2021/06/27 00:00:45;;;;;;;13.98;11.50;;;;;;;18.07;68.03;100387.88;1690865;81;26146;-68
2021/06/27 00:03:16;;;;;;;15.75;11.43;;;;;;;18.03;68.14;100385.62;1704564;81;25935;-69
2021/06/27 00:05:42;;;;;;;13.85;10.60;;;;;;;17.99;68.15;100387.49;1703717;81;26666;-68
2021/06/27 00:08:11;;;;;;;12.35;11.05;;;;;;;17.95;68.12;100384.67;1724506;80;26005;-68
2021/06/27 00:10:42;;;;;;;14.15;10.95;;;;;;;17.93;68.16;100392.45;1754634;79;27375;-69
2021/06/27 00:13:09;;;;;;;14.23;11.08;;;;;;;17.90;68.16;100391.80;1766467;78;25933;-71
2021/06/27 00:15:43;;;;;;;16.50;11.95;;;;;;;17.85;68.19;100396.93;1766169;79;26596;-70
2021/06/27 00:18:14;;;;;;;14.28;11.45;;;;;;;17.82;68.59;100395.48;1773005;78;26023;-69
2021/06/27 00:20:43;;;;;;;12.78;11.40;;;;;;;17.78;68.45;100391.30;1780696;78;25846;-69
2021/06/27 00:23:13;;;;;;;13.22;11.53;;;;;;;17.75;68.46;100400.21;1762442;79;27992;-68
2021/06/27 00:25:42;;;;;;;14.15;11.45;;;;;;;17.70;68.45;100395.02;1782885;78;25886;-70
2021/06/27 00:28:09;;;;;;;13.93;12.53;;;;;;;17.65;68.44;100400.17;1777638;78;26548;-79
2021/06/27 00:30:43;;;;;;;13.15;11.68;;;;;;;17.59;68.61;100406.25;1768396;78;25886;-74
2021/06/27 00:33:11;;;;;;;15.53;12.07;;;;;;;17.53;68.77;100406.52;1780523;79;25507;-73
2021/06/27 00:35:38;;;;;;;14.23;11.55;;;;;;;17.50;68.91;100403.15;1779629;78;28470;-74
2021/06/27 00:38:06;;;;;;;16.00;11.83;;;;;;;17.45;68.98;100405.34;1769351;79;25850;-75
2021/06/27 00:40:33;;;;;;;17.67;11.78;;;;;;;17.41;69.02;100409.35;1787714;78;25971;-74
2021/06/27 00:43:02;;;;;;;13.58;12.18;;;;;;;17.38;69.19;100410.05;1766053;78;26748;-74
2021/06/27 00:45:30;;;;;;;14.20;11.73;;;;;;;17.33;69.25;100411.13;1786983;79;25873;-74
2021/06/27 00:48:01;;;;;;;12.93;11.63;;;;;;;17.29;69.66;100400.66;1793247;79;27456;-74
2021/06/27 00:50:35;;;;;;;13.50;11.60;;;;;;;17.21;69.81;100400.25;1777969;78;25623;-74
2021/06/27 00:53:02;;;;;;;13.75;12.33;;;;;;;17.15;69.93;100395.63;1760167;79;25628;-74
2021/06/27 00:55:31;;;;;;;14.15;11.90;;;;;;;17.10;70.04;100405.45;1774509;78;25884;-73
2021/06/27 00:58:00;;;;;;;13.53;12.18;;;;;;;17.05;69.98;100405.70;1767097;79;26017;-74
2021/06/27 01:00:30;;;;;;;15.45;11.35;;;;;;;17.02;70.04;100400.14;1779706;77;27316;-74
2021/06/27 01:02:57;;;;;;;15.32;11.48;;;;;;;16.98;69.95;100404.15;1768683;78;25749;-75
2021/06/27 01:05:37;;;;;;;13.08;10.80;;;;;;;16.94;70.10;100406.79;1766884;79;26729;-74
2021/06/27 01:08:04;;;;;;;17.95;12.40;;;;;;;16.90;70.32;100408.61;1774300;79;25715;-74
2021/06/27 01:10:32;;;;;;;13.88;11.22;;;;;;;16.85;70.20;100409.45;1767309;78;25781;-74
2021/06/27 01:13:00;;;;;;;14.47;11.97;;;;;;;16.81;70.11;100416.94;1768971;78;28656;-74
2021/06/27 01:15:27;;;;;;;13.80;11.60;;;;;;;16.77;70.29;100413.33;1734107;80;25789;-74
2021/06/27 01:17:56;;;;;;;14.40;12.35;;;;;;;16.75;70.27;100410.70;1745426;78;26028;-74
2021/06/27 01:20:26;;;;;;;13.93;12.10;;;;;;;16.72;70.30;100410.02;1778398;78;25723;-73
2021/06/27 01:22:56;;;;;;;14.40;11.57;;;;;;;16.69;70.87;100409.38;1773991;78;25656;-73
2021/06/27 01:25:28;;;;;;;14.70;12.03;;;;;;;16.64;71.18;100409.63;1773493;78;27940;-72
2021/06/27 01:27:59;;;;;;;19.87;12.30;;;;;;;16.61;71.31;100413.25;1778999;79;26563;-72
2021/06/27 01:30:29;;;;;;;15.95;12.45;;;;;;;16.58;71.39;100412.61;1784459;78;25516;-73
2021/06/27 01:33:00;;;;;;;12.60;11.30;;;;;;;16.55;71.58;100411.92;1779456;78;26635;-72
2021/06/27 01:35:28;;;;;;;15.45;12.85;;;;;;;16.53;71.55;100411.48;1778063;78;25813;-72
2021/06/27 01:37:57;;;;;;;14.47;11.60;;;;;;;16.52;71.75;100414.55;1766680;78;28015;-72
2021/06/27 01:40:28;;;;;;;13.32;11.48;;;;;;;16.49;71.79;100406.47;1775261;79;25959;-73
2021/06/27 01:43:12;;;;;;;14.50;12.35;;;;;;;16.47;71.66;100407.39;1757290;78;25840;-75
2021/06/27 01:45:40;;;;;;;13.38;11.80;;;;;;;16.46;71.58;100406.37;1774667;78;25742;-73
2021/06/27 01:48:10;;;;;;;16.75;12.53;;;;;;;16.44;71.69;100410.81;1769368;78;26542;-73
2021/06/27 01:50:40;;;;;;;14.65;12.10;;;;;;;16.42;71.84;100404.33;1773618;79;27325;-73
2021/06/27 01:53:09;;;;;;;13.68;11.78;;;;;;;16.39;71.97;100405.02;1781759;78;25905;-73
2021/06/27 01:55:36;;;;;;;14.90;11.95;;;;;;;16.37;71.96;100402.42;1725719;80;26641;-74
2021/06/27 01:58:03;;;;;;;14.25;12.70;;;;;;;16.35;71.85;100410.95;1725698;82;26163;-75
2021/06/27 02:00:31;;;;;;;13.78;12.13;;;;;;;16.34;71.74;100410.72;1729030;80;26514;-76
2021/06/27 02:03:00;;;;;;;13.50;12.05;;;;;;;16.31;71.66;100410.61;1724753;80;27914;-73
2021/06/27 02:05:29;;;;;;;13.45;11.40;;;;;;;16.30;71.75;100411.77;1728979;81;26556;-73
2021/06/27 02:07:58;;;;;;;13.62;12.05;;;;;;;16.25;71.69;100410.06;1780807;78;25671;-74
2021/06/27 02:10:28;;;;;;;14.43;11.78;;;;;;;16.22;71.73;100406.66;1779460;79;25965;-74
2021/06/27 02:12:57;;;;;;;15.88;11.85;;;;;;;16.19;71.66;100405.97;1758288;80;25797;-74
2021/06/27 02:15:24;;;;;;;13.95;11.43;;;;;;;16.13;71.92;100399.18;1720645;81;28502;-74
2021/06/27 02:18:05;;;;;;;12.80;11.48;;;;;;;16.15;72.16;100394.17;1714090;81;25722;-73
2021/06/27 02:20:32;;;;;;;13.05;11.65;;;;;;;16.10;72.11;100397.92;1724533;81;25826;-72
2021/06/27 02:22:58;;;;;;;12.68;11.40;;;;;;;16.07;72.33;100394.51;1729135;80;25829;-73
2021/06/27 02:25:25;;;;;;;13.60;11.80;;;;;;;16.05;72.21;100394.84;1739365;80;25834;-73
2021/06/27 02:27:51;;;;;;;15.85;11.53;;;;;;;16.03;72.05;100398.49;1728780;80;28095;-72
2021/06/27 02:30:19;;;;;;;13.30;11.90;;;;;;;16.03;72.25;100395.77;1713846;80;25871;-74
2021/06/27 02:32:46;;;;;;;14.43;11.45;;;;;;;16.01;72.09;100395.90;1726637;80;25934;-74
2021/06/27 02:35:15;;;;;;;14.60;11.83;;;;;;;16.00;72.13;100397.02;1728580;80;25781;-73
2021/06/27 02:37:43;;;;;;;13.68;11.35;;;;;;;15.96;72.15;100398.28;1733885;80;25526;-74
2021/06/27 02:40:12;;;;;;;13.43;12.03;;;;;;;15.95;72.10;100399.41;1729083;81;28021;-72
2021/06/27 02:42:40;;;;;;;12.45;11.15;;;;;;;15.92;72.17;100394.66;1712543;81;31435;-73
2021/06/27 02:45:09;;;;;;;13.62;11.97;;;;;;;15.92;72.34;100399.30;1745809;79;25877;-73
2021/06/27 02:47:37;;;;;;;16.07;11.88;;;;;;;15.89;72.72;100401.38;1732119;80;25628;-73
2021/06/27 02:50:11;;;;;;;14.45;12.35;;;;;;;15.85;72.72;100406.14;1786425;78;26553;-75
2021/06/27 02:52:39;;;;;;;12.88;10.88;;;;;;;15.82;72.86;100402.73;1784087;78;27310;-76
2021/06/27 02:55:12;;;;;;;14.90;11.90;;;;;;;15.81;73.14;100398.40;1778767;78;25808;-75
2021/06/27 02:57:39;;;;;;;13.03;11.63;;;;;;;15.80;73.18;100399.55;1780686;78;25834;-75
2021/06/27 03:00:13;;;;;;;15.58;11.55;;;;;;;15.81;73.32;100397.61;1798738;78;25873;-75
2021/06/27 03:02:39;;;;;;;12.45;11.10;;;;;;;15.81;73.51;100400.34;1789792;78;25810;-74
2021/06/27 03:05:08;;;;;;;14.10;11.38;;;;;;;15.80;73.19;100396.83;1791257;77;27316;-74
2021/06/27 03:07:36;;;;;;;15.80;12.53;;;;;;;15.80;73.02;100394.65;1789098;78;35019;-73
2021/06/27 03:10:05;;;;;;;15.28;12.13;;;;;;;15.79;73.01;100397.95;1701055;81;25856;-74
2021/06/27 03:12:31;;;;;;;;;;;;;;;15.79;73.09;100399.89;1718835;81;25918;-73
2021/06/27 03:14:58;;;;;;;15.35;11.78;;;;;;;15.79;73.35;100401.25;1712846;82;25830;-76
2021/06/27 03:17:27;;;;;;;18.75;12.07;;;;;;;15.75;73.31;100397.57;1753830;79;25916;-75
2021/06/27 03:19:54;;;;;;;13.85;12.35;;;;;;;15.76;73.56;100401.94;1744342;80;25716;-75
2021/06/27 03:22:20;;;;;;;13.83;12.28;;;;;;;15.77;73.58;100396.72;1742958;80;26553;-74
2021/06/27 03:24:47;;;;;;;12.47;11.25;;;;;;;15.79;73.65;100394.44;1748526;80;25863;-76
2021/06/27 03:27:13;;;;;;;13.48;11.48;;;;;;;15.79;73.71;100387.62;1741442;80;25650;-73
2021/06/27 03:29:40;;;;;;;12.68;11.00;;;;;;;15.80;73.66;100382.38;1764202;80;27474;-74
2021/06/27 03:32:08;;;;;;;15.05;12.63;;;;;;;15.82;73.66;100391.03;1757049;80;26460;-74
2021/06/27 03:34:37;;;;;;;15.40;11.40;;;;;;;15.82;73.70;100386.94;1753482;80;25698;-75
2021/06/27 03:37:04;;;;;;;15.78;12.13;;;;;;;15.83;73.88;100389.33;1750517;80;25874;-73
2021/06/27 03:39:32;;;;;;;13.83;12.03;;;;;;;15.85;74.12;100383.50;1765755;80;25743;-75
2021/06/27 03:41:59;;;;;;;14.90;12.10;;;;;;;15.85;74.23;100385.69;1759403;80;27317;-75
2021/06/27 03:44:28;;;;;;;14.70;13.10;;;;;;;15.89;74.43;100387.16;1769335;79;26484;-74
2021/06/27 03:46:55;;;;;;;14.47;12.13;;;;;;;15.93;74.59;100387.27;1710603;81;25922;-74
2021/06/27 03:49:22;;;;;;;14.23;12.63;;;;;;;15.97;74.64;100384.88;1716910;81;26847;-75
2021/06/27 03:51:51;;;;;;;14.70;12.55;;;;;;;16.01;74.74;100381.68;1703834;81;25724;-75
2021/06/27 03:54:19;;;;;;;18.67;13.30;;;;;;;16.05;74.80;100385.87;1718685;81;30601;-76
2021/06/27 03:56:46;;;;;;;15.23;13.68;;;;;;;16.10;74.91;100378.82;1730734;81;25845;-75
2021/06/27 03:59:12;;;;;;;16.75;14.15;;;;;;;;;;1748293;79;25728;-75
2021/06/27 04:01:40;;;;;;;14.33;12.82;;;;;;;16.19;74.98;100372.67;1749147;79;26516;-75
2021/06/27 04:04:07;;;;;;;15.98;13.62;;;;;;;16.22;74.85;100378.00;1741938;80;25416;-76
2021/06/27 04:06:37;;;;;;;16.17;13.15;;;;;;;16.25;74.86;100389.59;1716244;81;27392;-74
2021/06/27 04:09:04;;;;;;;15.88;13.95;;;;;;;16.29;74.81;100383.66;1665556;83;25826;-74
2021/06/27 04:11:30;;;;;;;16.27;13.83;;;;;;;16.32;74.81;100384.92;1670246;82;25951;-74
2021/06/27 04:13:57;;;;;;;20.48;14.15;;;;;;;16.34;74.92;100388.88;1669896;83;25937;-75
2021/06/27 04:16:23;;;;;;;19.35;13.83;;;;;;;16.38;75.13;100380.23;1661528;83;25848;-77
2021/06/27 04:18:50;;;;;;;18.60;14.28;;;;;;;16.42;75.29;100387.95;1717272;80;28062;-74
2021/06/27 04:21:20;;;;;;;15.60;13.38;;;;;;;16.47;75.48;100391.59;1698766;81;26098;-75
2021/06/27 04:23:48;;;;;;;20.62;14.83;;;;;;;16.52;75.66;100388.62;1732495;81;25927;-74
2021/06/27 04:26:15;;;;;;;17.15;13.80;;;;;;;16.59;75.89;100395.06;1712955;82;25797;-76
2021/06/27 04:28:41;;;;;;;18.48;14.23;;;;;;;16.67;75.90;100395.25;1716345;81;25918;-77
2021/06/27 04:31:08;;;;;;;18.25;14.53;;;;;;;16.74;76.07;100403.67;1712604;81;26921;-76
2021/06/27 04:33:34;;;;;;;20.90;14.13;;;;;;;16.80;75.97;100397.61;1724268;81;25828;-74
2021/06/27 04:36:01;;;;;;;18.50;13.83;;;;;;;16.87;76.03;100401.69;1735594;81;25748;-76
2021/06/27 04:38:28;;;;;;;16.35;14.05;;;;;;;16.95;76.17;100400.17;1709274;81;25938;-75
2021/06/27 04:40:54;;;;;;;15.98;13.62;;;;;;;17.05;76.22;100398.08;1710573;81;25922;-77
2021/06/27 04:43:23;;;;;;;17.30;13.90;;;;;;;17.12;76.09;100401.78;1719963;82;27245;-75
2021/06/27 04:45:51;;;;;;;15.45;13.85;;;;;;;17.20;76.19;100396.49;1738294;81;25746;-74
2021/06/27 04:48:18;;;;;;;14.55;12.98;;;;;;;17.28;76.24;100394.98;1699754;81;25899;-76
2021/06/27 04:50:47;;;;;;;15.43;13.40;;;;;;;17.35;75.98;100393.80;1692498;81;26181;-76
2021/06/27 04:53:15;;;;;;;17.60;13.60;;;;;;;17.42;75.64;100396.47;1716795;82;25721;-75
2021/06/27 04:55:44;;;;;;;17.77;12.88;;;;;;;17.48;75.88;100393.12;1709846;81;27331;-75
2021/06/27 04:58:12;;;;;;;16.97;13.40;;;;;;;17.57;75.78;100393.52;1713575;82;25857;-74
2021/06/27 05:00:38;;;;;;;20.20;12.60;;;;;;;17.66;75.56;100388.67;1729575;81;25829;-75
2021/06/27 05:03:08;;;;;;;16.15;12.65;;;;;;;17.73;75.53;100382.00;1718072;81;25840;-75
2021/06/27 05:05:35;;;;;;;14.40;11.83;;;;;;;17.83;75.49;100385.55;1757601;78;25862;-75
2021/06/27 05:08:02;;;;;;;18.48;13.22;;;;;;;17.90;74.59;100391.80;1784437;78;26813;-74
2021/06/27 05:10:29;;;;;;;16.57;12.63;;;;;;;17.96;74.78;100385.47;1772653;79;25856;-77
2021/06/27 05:12:57;;;;;;;13.80;11.20;;;;;;;18.05;74.69;100392.92;1770755;78;26364;-78
2021/06/27 05:15:24;;;;;;;13.70;10.20;;;;;;;18.15;74.70;100395.09;1765940;79;25773;-78
2021/06/27 05:17:50;;;;;;;14.00;10.72;;;;;;;18.25;74.54;100397.83;1760430;80;25716;-78
2021/06/27 05:20:20;;;;;;;13.10;10.85;;;;;;;18.36;74.65;100393.97;1747605;80;27325;-78
2021/06/27 05:22:46;;;;;;;11.73;10.08;;;;;;;18.47;74.41;100397.14;1784007;78;25753;-78
2021/06/27 05:25:16;;;;;;;12.58;10.32;;;;;;;18.57;74.26;100397.71;1785824;77;25730;-76
2021/06/27 05:27:42;;;;;;;14.20;10.88;;;;;;;18.69;74.18;100403.63;1787017;78;26454;-77
2021/06/27 05:30:11;;;;;;;21.45;17.15;;;;;;;18.80;73.75;100401.89;1768748;79;25935;-75
2021/06/27 05:32:37;;;;;;;12.82;10.13;;;;;;;18.90;73.51;100409.55;1761751;80;27430;-77
2021/06/27 05:35:06;;;;;;;14.25;10.28;;;;;;;19.00;73.08;100406.78;1767561;79;25781;-76
2021/06/27 05:37:36;;;;;;;14.20;10.38;;;;;;;19.11;73.00;100409.15;1759078;80;25762;-74
2021/06/27 05:40:04;;;;;;;11.48;9.95;;;;;;;19.20;72.56;100411.06;1729261;81;25995;-70
2021/06/27 05:42:31;;;;;;;16.12;9.53;;;;;;;19.30;72.51;100411.05;1750502;79;33033;-70
2021/06/27 05:44:58;;;;;;;13.80;8.88;;;;;;;19.45;72.42;100409.94;1742961;80;27986;-68
2021/06/27 05:47:26;;;;;;;12.25;8.98;;;;;;;19.57;71.96;100405.03;1677219;83;25755;-72
2021/06/27 05:49:53;;;;;;;10.90;9.20;;;;;;;19.75;71.93;100399.05;1678396;83;25739;-73
2021/06/27 05:52:20;;;;;;;12.55;8.73;;;;;;;19.93;71.46;100402.08;1670505;84;26778;-74
2021/06/27 05:54:46;;;;;;;9.00;7.70;;;;;;;20.11;70.98;100398.23;1646867;86;25588;-73
2021/06/27 05:57:12;;;;;;;11.12;8.65;;;;;;;20.29;70.66;100406.69;1671211;84;27437;-71
2021/06/27 05:59:39;;;;;;;10.98;8.05;;;;;;;20.45;70.07;100403.75;1666658;83;25787;-68
2021/06/27 06:02:06;;;;;;;11.93;8.30;;;;;;;20.59;69.14;100411.40;1687144;82;25758;-66
2021/06/27 06:04:36;;;;;;;10.37;8.47;;;;;;;20.70;68.67;100407.64;1672746;84;25723;-72
2021/06/27 06:07:03;;;;;;;11.15;7.83;;;;;;;20.81;68.08;100413.84;1687072;83;25813;-70
2021/06/27 06:09:30;;;;;;;11.03;8.00;;;;;;;20.87;67.50;100405.45;1688273;82;27987;-70
2021/06/27 06:11:57;;;;;;;9.10;8.20;;;;;;;20.97;67.33;100405.36;1682575;83;26007;-71
2021/06/27 06:14:25;;;;;;;10.70;8.70;;;;;;;21.07;66.84;100398.59;1675978;83;25450;-68
2021/06/27 06:16:52;;;;;;;15.75;11.90;;;;;;;21.18;66.66;100397.33;1691533;83;25813;-69
2021/06/27 06:19:20;;;;;;;14.03;8.90;;;;;;;21.36;66.59;100402.98;1687034;82;25537;-70
2021/06/27 06:21:48;;;;;;;8.73;7.72;;;;;;;21.53;66.41;100404.92;1695206;82;27328;-69
2021/06/27 06:24:19;;;;;;;8.30;7.35;;;;;;;21.71;65.77;100400.35;1689830;83;25627;-69
2021/06/27 06:26:47;;;;;;;10.98;8.78;;;;;;;21.85;64.98;100401.62;1685492;83;25942;-70
2021/06/27 06:29:13;;;;;;;23.02;15.98;;;;;;;21.98;64.66;100396.80;1680531;83;25793;-61
2021/06/27 06:31:41;;;;;;;8.85;7.95;;;;;;;22.13;64.10;100396.86;1627120;84;26004;-60
2021/06/27 06:34:08;;;;;;;9.18;7.30;;;;;;;22.27;64.00;100401.65;1686459;83;27399;-60
2021/06/27 06:36:35;;;;;;;8.65;7.62;;;;;;;22.41;63.46;100392.13;1681155;83;25703;-62
2021/06/27 06:39:03;;;;;;;8.30;6.05;;;;;;;22.55;63.11;100392.16;1682403;83;25850;-59
2021/06/27 06:41:30;;;;;;;7.55;6.58;;;;;;;22.70;62.14;100397.73;1682526;83;25787;-61
2021/06/27 06:43:56;;;;;;;7.55;6.67;;;;;;;22.82;61.67;100396.59;1697638;78;25558;-61
2021/06/27 06:46:23;;;;;;;7.97;6.45;;;;;;;22.89;60.49;100397.38;1771914;79;27315;-62
2021/06/27 06:48:51;;;;;;;10.13;6.40;;;;;;;23.00;60.26;100397.99;1761357;78;25802;-61
2021/06/27 06:51:18;;;;;;;7.37;6.20;;;;;;;23.12;60.42;100394.31;1765096;78;25692;-61
2021/06/27 06:53:44;;;;;;;7.05;6.37;;;;;;;23.29;60.29;100385.86;1739579;80;25891;-61
2021/06/27 06:56:11;;;;;;;8.60;6.55;;;;;;;23.48;60.06;100392.95;1766054;78;25948;-62
2021/06/27 06:58:37;;;;;;;7.25;6.20;;;;;;;23.67;59.63;100392.34;1775309;79;27294;-62
2021/06/27 07:01:04;;;;;;;7.22;6.30;;;;;;;23.84;59.31;100392.94;1776582;79;27206;-62
2021/06/27 07:03:30;;;;;;;7.58;6.42;;;;;;;24.04;58.58;100396.63;1789794;79;25798;-62
2021/06/27 07:06:01;;;;;;;10.88;7.53;;;;;;;24.18;58.09;100395.22;1781207;79;25903;-61
2021/06/27 07:08:29;;;;;;;6.97;6.28;;;;;;;24.36;58.20;100389.62;1786747;79;25809;-61
2021/06/27 07:10:57;;;;;;;8.10;5.93;;;;;;;24.59;58.16;100389.77;1784709;79;27435;-62
2021/06/27 07:13:24;;;;;;;8.38;6.87;;;;;;;24.79;57.17;100388.07;1783922;79;25681;-62
2021/06/27 07:15:51;;;;;;;7.05;6.35;;;;;;;25.00;56.35;100393.88;1779122;79;25699;-62
2021/06/27 07:18:18;;;;;;;7.47;5.80;;;;;;;25.10;55.60;100400.72;1753345;80;25963;-62
2021/06/27 07:20:44;;;;;;;6.53;5.92;;;;;;;25.26;55.54;100396.08;1772663;80;25837;-62
2021/06/27 07:23:11;;;;;;;6.33;5.72;;;;;;;25.48;55.15;100392.53;1757717;80;29564;-61
2021/06/27 07:25:38;;;;;;;7.25;6.47;;;;;;;25.68;54.97;100399.69;1769962;80;25671;-60
2021/06/27 07:28:05;;;;;;;8.50;6.20;;;;;;;25.92;54.54;100398.47;1752735;80;25763;-61
2021/06/27 07:30:31;;;;;;;7.22;6.40;;;;;;;26.16;54.29;100400.80;1756466;80;26410;-61
2021/06/27 07:33:01;;;;;;;6.78;6.17;;;;;;;26.37;53.48;100396.98;1785575;79;25683;-61
2021/06/27 07:35:29;;;;;;;8.10;6.72;;;;;;;26.57;52.99;100402.67;1788414;79;27441;-61
2021/06/27 07:37:56;;;;;;;7.90;6.25;;;;;;;26.76;52.06;100401.26;1754160;80;25799;-61
2021/06/27 07:40:23;;;;;;;6.58;5.80;;;;;;;26.91;51.54;100404.62;1750370;80;25780;-61
2021/06/27 07:42:50;;;;;;;6.53;5.75;;;;;;;27.07;51.17;100394.88;1758607;80;27815;-61
2021/06/27 07:45:17;;;;;;;9.48;5.60;;;;;;;27.23;49.98;100402.58;1742049;80;25870;-62
2021/06/27 07:47:44;;;;;;;6.55;5.62;;;;;;;27.31;49.89;100404.05;1744655;80;28013;-61
2021/06/27 07:50:13;;;;;;;6.30;5.72;;;;;;;27.37;48.30;100406.53;1742166;80;25796;-62
2021/06/27 07:52:40;;;;;;;7.45;6.20;;;;;;;27.43;48.56;100402.08;1756536;80;32615;-62
2021/06/27 07:55:09;;;;;;;7.40;6.00;;;;;;;27.68;48.92;100393.91;1703898;82;25940;-62
2021/06/27 07:57:35;;;;;;;11.05;7.55;;;;;;;27.89;47.87;100392.72;1748675;79;25913;-62
2021/06/27 08:00:06;;;;;;;6.25;5.60;;;;;;;28.14;47.84;100389.49;1796855;78;27358;-62
2021/06/27 08:02:33;;;;;;;7.05;5.78;;;;;;;28.47;46.83;100382.68;1789180;79;26561;-61
2021/06/27 08:05:00;;;;;;;7.08;6.47;;;;;;;28.58;46.04;100386.64;1775799;79;25858;-62
2021/06/27 08:07:31;;;;;;;7.33;5.05;;;;;;;28.66;45.09;100385.27;1785729;79;26218;-62
2021/06/27 08:09:58;;;;;;;5.65;5.15;;;;;;;28.83;45.16;100390.27;1774724;79;26027;-60
2021/06/27 08:12:28;;;;;;;5.62;5.12;;;;;;;29.09;44.86;100387.06;1788842;79;27318;-61
2021/06/27 08:14:57;;;;;;;6.05;5.00;;;;;;;29.41;44.40;100385.52;1771042;79;25746;-61
2021/06/27 08:17:25;;;;;;;5.20;4.70;;;;;;;29.60;43.60;100386.63;1782942;79;25654;-63
2021/06/27 08:19:52;;;;;;;7.55;4.85;;;;;;;29.81;43.07;100390.87;1784615;79;25850;-60
2021/06/27 08:22:20;;;;;;;5.22;4.80;;;;;;;30.05;41.48;100387.22;1781562;79;25722;-61
2021/06/27 08:24:48;;;;;;;8.28;5.35;;;;;;;29.82;39.36;100386.09;1779780;79;29546;-61
2021/06/27 08:27:15;;;;;;;8.87;5.10;;;;;;;29.73;39.34;100383.30;1786977;79;25785;-61
2021/06/27 08:29:42;;;;;;;6.10;5.60;;;;;;;29.79;39.42;100384.34;1772758;79;25788;-60
2021/06/27 08:32:11;;;;;;;5.83;5.20;;;;;;;29.73;39.63;100376.33;1779582;79;25682;-61
2021/06/27 08:34:37;;;;;;;5.20;4.70;;;;;;;29.90;40.15;100381.27;1788792;79;25614;-62
2021/06/27 08:37:05;;;;;;;7.33;4.67;;;;;;;29.96;39.30;100380.11;1777109;79;27308;-62
2021/06/27 08:39:32;;;;;;;7.60;4.70;;;;;;;30.16;39.39;100380.73;1787503;79;25709;-63
2021/06/27 08:42:00;;;;;;;6.95;4.40;;;;;;;30.39;39.13;100378.12;1773596;79;26028;-62
2021/06/27 08:44:28;;;;;;;4.78;4.28;;;;;;;30.68;38.66;100380.84;1791999;79;26668;-62
2021/06/27 08:47:01;;;;;;;5.28;4.50;;;;;;;30.65;37.50;100378.93;1785017;79;25681;-61
2021/06/27 08:49:29;;;;;;;7.10;4.15;;;;;;;30.37;37.30;100377.18;1779787;79;27948;-61
2021/06/27 08:51:57;;;;;;;4.78;4.30;;;;;;;30.09;37.17;100377.38;1760593;79;25861;-61
2021/06/27 08:54:23;;;;;;;4.97;4.20;;;;;;;29.96;37.67;100376.70;1789069;79;25727;-61
2021/06/27 08:56:50;;;;;;;6.28;4.15;;;;;;;29.75;37.05;100378.67;1788867;77;69294;-77
2021/06/27 08:59:16;;;;;;;5.33;4.10;;;;;;;29.39;37.10;100385.95;1757503;78;26387;-73
2021/06/27 09:01:42;;;;;;;5.85;4.10;;;;;;;29.45;37.89;100386.20;1786228;78;27954;-73
2021/06/27 09:04:09;;;;;;;4.62;4.22;;;;;;;29.43;36.27;100372.70;1783605;78;25833;-74
2021/06/27 09:06:39;;;;;;;5.20;4.70;;;;;;;29.04;35.94;100384.17;1773083;78;25911;-74
2021/06/27 09:09:21;;;;;;;6.67;3.92;;;;;;;28.88;37.21;100375.22;1785416;78;26545;-75
2021/06/27 09:12:11;;;;;;;7.03;4.25;;;;;;;29.03;37.16;100367.31;1784759;78;26509;-75
2021/06/27 09:14:40;;;;;;;4.92;4.33;;;;;;;28.96;37.09;100371.67;1746599;79;27333;-67
2021/06/27 09:17:24;;;;;;;5.55;4.28;;;;;;;28.95;37.21;100374.27;1798121;78;25927;-68
2021/06/27 09:19:59;;;;;;;5.58;4.62;;;;;;;29.05;38.01;100367.66;1779107;78;25818;-67
2021/06/27 09:22:40;;;;;;;5.50;4.17;;;;;;;29.20;37.45;100366.73;1782354;78;26284;-69
2021/06/27 09:25:22;;;;;;;4.62;3.98;;;;;;;29.14;37.32;100363.48;1759265;78;25801;-67
2021/06/27 09:28:11;;;;;;;6.58;4.58;;;;;;;28.98;36.99;100362.27;1745430;79;27300;-68
2021/06/27 09:30:51;;;;;;;4.37;3.98;;;;;;;28.72;36.97;100366.83;1776508;78;27160;-68
2021/06/27 09:33:24;;;;;;;8.20;7.30;;;;;;;28.46;37.10;100369.97;1787351;78;25410;-69
2021/06/27 09:35:58;;;;;;;5.75;4.45;;;;;;;28.22;37.59;100365.89;1762370;79;26636;-68
2021/06/27 09:38:36;;;;;;;4.60;3.70;;;;;;;28.06;38.05;100368.59;1780959;78;25922;-67
2021/06/27 09:41:14;;;;;;;4.65;4.25;;;;;;;28.25;38.96;100368.44;1751073;79;30132;-67
2021/06/27 09:43:50;;;;;;;4.70;4.28;;;;;;;28.52;39.00;100364.09;1776358;78;26695;-67
2021/06/27 09:46:18;;;;;;;5.62;4.30;;;;;;;28.65;38.40;100357.27;1779146;78;25806;-67
2021/06/27 09:48:58;;;;;;;5.03;4.53;;;;;;;28.57;37.52;100363.61;1777667;78;25832;-69
2021/06/27 09:51:30;;;;;;;5.05;4.10;;;;;;;28.29;37.32;100361.57;1776771;78;25651;-67
2021/06/27 09:53:58;;;;;;;4.22;3.83;;;;;;;28.27;37.90;100352.87;1768765;78;27398;-67
2021/06/27 09:56:26;;;;;;;6.03;3.90;;;;;;;28.25;37.60;100352.53;1781860;78;25980;-67
2021/06/27 09:59:11;;;;;;;5.00;4.55;;;;;;;28.52;38.59;100347.40;1776023;79;25912;-68
2021/06/27 10:01:39;;;;;;;6.05;3.95;;;;;;;28.68;36.99;100344.66;1738831;79;26022;-68
2021/06/27 10:04:09;;;;;;;4.25;3.85;;;;;;;28.25;36.49;100360.09;1777139;78;26615;-68
2021/06/27 10:06:49;;;;;;;4.40;4.00;;;;;;;27.90;36.94;100368.67;1777971;78;27190;-68
2021/06/27 10:09:22;;;;;;;4.45;4.05;;;;;;;27.63;37.07;100368.78;1780502;78;26047;-68
2021/06/27 10:12:07;;;;;;;5.12;3.90;;;;;;;27.35;37.50;100368.08;1786306;78;25894;-68
2021/06/27 10:14:52;;;;;;;4.60;3.80;;;;;;;27.18;38.00;100365.75;1746370;79;26767;-67
2021/06/27 10:17:25;;;;;;;7.50;4.03;;;;;;;27.03;38.35;100370.73;1782730;78;26322;-68
2021/06/27 10:19:54;;;;;;;5.20;3.92;;;;;;;26.90;38.50;100361.45;1746990;80;28296;-68
2021/06/27 10:22:21;;;;;;;4.22;3.83;;;;;;;26.78;38.65;100356.45;1782105;78;27032;-69
2021/06/27 10:24:48;;;;;;;5.37;3.98;;;;;;;26.76;38.94;100359.64;1779558;78;25695;-69
2021/06/27 10:27:15;;;;;;;4.60;4.10;;;;;;;26.79;39.46;100355.26;1774682;78;25844;-69
2021/06/27 10:29:45;;;;;;;5.85;3.80;;;;;;;27.23;40.99;100356.16;1783114;78;26016;-65
2021/06/27 10:32:12;;;;;;;4.45;4.05;;;;;;;27.94;40.50;100351.95;1777002;78;27737;-68
2021/06/27 10:34:39;;;;;;;5.92;3.83;;;;;;;28.67;40.36;100348.67;1775789;78;25944;-67
2021/06/27 10:37:12;;;;;;;5.28;4.37;;;;;;;29.31;38.90;100347.58;1785046;78;25892;-67
2021/06/27 10:39:56;;;;;;;5.00;4.50;;;;;;;29.40;37.24;100345.72;1768878;79;26886;-66
2021/06/27 10:42:53;;;;;;;5.03;4.03;;;;;;;29.35;36.82;100347.64;1746683;80;25693;-67
2021/06/27 10:45:24;;;;;;;4.12;3.75;;;;;;;29.34;37.26;100345.32;1776292;78;27480;-65
2021/06/27 10:47:51;;;;;;;3.67;3.37;;;;;;;29.73;37.43;100342.88;1793451;78;25669;-64
2021/06/27 10:50:21;;;;;;;5.87;3.50;;;;;;;30.30;37.41;100342.50;1786062;78;25795;-67
2021/06/27 10:52:58;;;;;;;5.67;3.33;;;;;;;31.06;36.90;100340.99;1760796;78;25909;-66
2021/06/27 10:55:41;;;;;;;3.90;2.95;;;;;;;31.66;35.99;100320.59;1790759;78;25841;-66
2021/06/27 10:58:13;;;;;;;2.62;2.42;;;;;;;32.25;33.64;100332.04;1788120;78;27438;-65
2021/06/27 11:00:57;;;;;;;4.87;2.95;;;;;;;32.17;32.77;100339.91;1768812;77;26409;-63
2021/06/27 11:03:38;;;;;;;2.80;2.60;;;;;;;31.86;31.97;100329.26;1763132;79;25882;-61
2021/06/27 11:06:28;;;;;;;2.92;2.62;;;;;;;31.37;31.89;100329.18;1767443;78;27138;-62
2021/06/27 11:09:05;;;;;;;3.25;2.35;;;;;;;30.97;31.70;100333.27;1765381;78;26122;-62
2021/06/27 11:11:25;;;;;;;4.60;2.80;;;;;;;31.05;31.88;100339.41;1776285;78;27336;-62
2021/06/27 11:14:16;;;;;;;2.15;1.95;;;;;;;31.09;32.15;100332.48;1703891;81;26644;-62
2021/06/27 11:17:06;;;;;;;2.67;2.25;;;;;;;30.78;30.97;100327.30;1737808;79;25730;-62
2021/06/27 11:19:40;;;;;;;2.40;2.20;;;;;;;30.58;31.79;100334.50;1771175;78;25586;-62
2021/06/27 11:22:23;;;;;;;4.15;2.30;;;;;;;30.71;31.97;100331.10;1780179;78;25986;-62
2021/06/27 11:24:54;;;;;;;2.60;2.22;;;;;;;30.68;31.27;100323.62;1761863;79;27418;-61
2021/06/27 11:27:39;;;;;;;2.40;2.20;;;;;;;30.34;31.03;100333.39;1773106;78;25929;-61